Airfield :
LOGIN :

Register | Disclaimer

   EN    FR    IT 

 










Legend :    VFR   Marginal VFR   IFR   Intensive IFR   Very Intensive IFR
Visi :
Ceiling :
>= 8 km
>= 3000ft
5 to 8 km
1000 to 3000 ft
1500m to 5 km
500 to 1000 ft
800 to 1500m
200 to 500 ft
< 800m
< 200 ft
Symbols :   Thunderstorms  Fog  Heavy snow  Heavy precipitations  Wind > 20 kt
SIGMETs :     Misc.  Thunderstorms  Icing  Turbulence  Mountain Waves  Volcanic Ashes






- Airport Elevation : 157 ft
- IATA code : LIL


LFQQ - Lille Lesquin

CURRENT METAR :
  • 262200Z AUTO 18017KT 9999 FEW037 OVC054 08/06 Q1010 TEMPO 20015G25KT 2000 DZRA BKN007

EXPIRED METARs :
  • 262130Z AUTO 18016KT 6000 -RA BKN039/// BKN050/// OVC060/// ///TCU 07/06 Q1011 TEMPO 20015G25KT 2000 DZRA BKN007
  • 262100Z AUTO 18017KT 9999 -RA FEW015/// BKN052/// BKN062/// ///TCU 07/06 Q1011 TEMPO 20015G25KT 2000 DZRA BKN007
  • 262030Z AUTO 17014KT 9999 FEW015/// BKN072/// OVC100/// ///TCU 08/05 Q1011 TEMPO 20015G25KT 2000 DZRA BKN007
  • 262000Z AUTO 17014KT CAVOK 07/05 Q1012 TEMPO 20015G25KT 2000 DZRA BKN007
  • 261930Z AUTO 17013KT 9999 FEW012 SCT078 BKN120 07/05 Q1012 TEMPO 20015G25KT 2000 DZRA BKN007
  • 261900Z AUTO 17013KT CAVOK 07/05 Q1012 TEMPO 20015G25KT 2000 DZRA BKN007

TAF TAF LFQQ
Valid from the 26 at 18:00 until the 28 at 00:00 UTC


261700Z 2618/2724 20012KT 9999 SCT007 OVC015
TEMPO 2618/2620 BKN007
TEMPO 2620/2702 20015G25KT 2000 DZRA BKN007
BECMG 2702/2704 BKN007
BECMG 2709/2712 SCT013
BECMG 2717/2719 20015G25KT 3000 RA BKN005 OVC015
ATIS : +33 3 20 16 19 54



MET'MAP, your aeronautical weather chart ! - Copyright ORBIFLY December 2007 - Disclaimer

ORBIFLY MET'MAP TEAM :

Programming & Development : Alexandra Zaïnal
Concept & original design : Baudouin d'Aumeries
Assistance for programming : Marc-Olivier Méhu
Technical & hardware support : Manuel Goepfert

Contact : metmap@orbifly.com




SOURCES & CREDITS :

   NOAA